Time;durP1;ratioP1;P1;durP2;ratioP2;P2;SDS_P1;SDS_P2;PMS_P1;PMS_P2;Temp;Humidity;BMP_temperature;BMP_pressure;BME280_temperature;BME280_humidity;BME280_pressure;Samples;Min_cycle;Max_cycle;Signal;HPM_P1;HPM_P2
2022/10/19 00:01:44;;;;;;;60.20;43.40;;;;;;;;;;5068422;28;20024;-73
2022/10/19 00:04:10;;;;;;;50.97;38.65;;;;;;;;;;5069700;28;20470;-72
2022/10/19 00:06:36;;;;;;;40.15;31.40;;;;;;;;;;5083666;28;20016;-76
2022/10/19 00:09:12;;;;;;;43.90;30.90;;;;;;;;;;5083184;28;20111;-77
2022/10/19 00:11:39;;;;;;;40.20;29.88;;;;;;;;;;5083224;28;20019;-73
2022/10/19 00:14:05;;;;;;;40.38;29.98;;;;;;;;;;5083449;28;21392;-74
2022/10/19 00:16:33;;;;;;;40.08;29.70;;;;;;;;;;5083375;28;20031;-72
2022/10/19 00:18:59;;;;;;;51.17;37.58;;;;;;;;;;5083705;28;20024;-75
2022/10/19 00:21:25;;;;;;;51.03;38.38;;;;;;;;;;5082474;28;20044;-73
2022/10/19 00:23:50;;;;;;;49.63;36.40;;;;;;;;;;5083268;28;20443;-73
2022/10/19 00:26:15;;;;;;;46.25;32.13;;;;;;;;;;5083444;28;20035;-72
2022/10/19 00:28:41;;;;;;;42.83;31.05;;;;;;;;;;5075333;28;20050;-73
2022/10/19 00:31:09;;;;;;;37.13;27.77;;;;;;;;;;5070152;28;20494;-72
2022/10/19 00:33:34;;;;;;;29.23;23.55;;;;;;;;;;5079353;28;20190;-73
2022/10/19 00:36:00;;;;;;;32.05;24.42;;;;;;;;;;5082091;28;20107;-73
2022/10/19 00:38:25;;;;;;;31.27;25.35;;;;;;;;;;5083076;28;20104;-72
2022/10/19 00:40:50;;;;;;;39.67;29.33;;;;;;;;;;5083426;28;20019;-71
2022/10/19 00:43:18;;;;;;;50.45;33.40;;;;;;;;;;5082697;28;20039;-72
2022/10/19 00:45:43;;;;;;;43.58;29.25;;;;;;;;;;5080605;28;20159;-76
2022/10/19 00:48:10;;;;;;;39.08;29.38;;;;;;;;;;5080780;28;20140;-74
2022/10/19 00:50:36;;;;;;;46.03;32.88;;;;;;;;;;5082893;28;20104;-72
2022/10/19 00:53:01;;;;;;;49.25;36.47;;;;;;;;;;5081337;28;20032;-72
2022/10/19 00:55:27;;;;;;;50.80;37.53;;;;;;;;;;5082183;28;20347;-71
2022/10/19 00:57:52;;;;;;;50.10;36.58;;;;;;;;;;5081535;28;20055;-73
2022/10/19 01:00:18;;;;;;;31.55;23.65;;;;;;;;;;5081986;28;20024;-72
2022/10/19 01:02:43;;;;;;;24.77;20.95;;;;;;;;;;5081982;28;20024;-75
2022/10/19 01:05:09;;;;;;;25.73;20.40;;;;;;;;;;5081916;28;20038;-73
2022/10/19 01:07:35;;;;;;;26.27;21.52;;;;;;;;;;5081711;28;20020;-72
2022/10/19 01:10:00;;;;;;;20.23;17.13;;;;;;;;;;5082133;28;20031;-72
2022/10/19 01:12:26;;;;;;;17.40;14.85;;;;;;;;;;5081208;28;20042;-72
2022/10/19 01:15:00;;;;;;;16.00;14.13;;;;;;;;;;5081113;28;20032;-72
2022/10/19 01:17:38;;;;;;;19.38;15.13;;;;;;;;;;5081522;28;20026;-72
2022/10/19 01:20:20;;;;;;;17.40;15.13;;;;;;;;;;5081805;28;20047;-71
2022/10/19 01:23:04;;;;;;;15.40;13.15;;;;;;;;;;5081406;28;20043;-71
2022/10/19 01:25:32;;;;;;;18.23;14.57;;;;;;;;;;5079831;28;20032;-72
2022/10/19 01:28:01;;;;;;;18.10;15.18;;;;;;;;;;5082175;28;21562;-73
2022/10/19 01:30:30;;;;;;;18.25;16.08;;;;;;;;;;5080032;28;20032;-74
2022/10/19 01:33:00;;;;;;;24.65;20.10;;;;;;;;;;5073875;28;20035;-72
2022/10/19 01:35:31;;;;;;;28.65;22.73;;;;;;;;;;5078144;28;20024;-74
2022/10/19 01:38:15;;;;;;;34.35;26.67;;;;;;;;;;5080752;28;20036;-73
2022/10/19 01:40:49;;;;;;;33.05;26.30;;;;;;;;;;5080199;28;20032;-72
2022/10/19 01:43:29;;;;;;;41.20;30.15;;;;;;;;;;5081457;28;20020;-76
2022/10/19 01:46:15;;;;;;;38.70;27.92;;;;;;;;;;5082143;28;20097;-73
2022/10/19 01:48:43;;;;;;;20.40;16.92;;;;;;;;;;5067811;28;20047;-73
2022/10/19 01:51:22;;;;;;;23.27;16.83;;;;;;;;;;5081856;28;20028;-72
2022/10/19 01:53:49;;;;;;;25.73;19.13;;;;;;;;;;5081022;28;20119;-74
2022/10/19 01:56:17;;;;;;;25.77;21.50;;;;;;;;;;5081299;28;20020;-76
2022/10/19 01:58:43;;;;;;;36.00;25.92;;;;;;;;;;5078980;28;20024;-75
2022/10/19 02:01:09;;;;;;;32.67;25.58;;;;;;;;;;5080286;28;20027;-74
2022/10/19 02:03:36;;;;;;;31.33;21.13;;;;;;;;;;5081123;28;20038;-72
2022/10/19 02:06:03;;;;;;;26.08;19.92;;;;;;;;;;5079918;28;20485;-72
2022/10/19 02:08:40;;;;;;;22.88;19.52;;;;;;;;;;5080830;28;20032;-73
2022/10/19 02:11:06;;;;;;;22.67;18.35;;;;;;;;;;5081919;28;20028;-72
2022/10/19 02:13:32;;;;;;;33.83;26.70;;;;;;;;;;5080978;28;20100;-74
2022/10/19 02:15:59;;;;;;;35.47;26.95;;;;;;;;;;5080671;28;20056;-74
2022/10/19 02:18:30;;;;;;;39.92;31.23;;;;;;;;;;5079902;28;20427;-72
2022/10/19 02:20:56;;;;;;;101.78;59.15;;;;;;;;;;5079881;28;20032;-74
2022/10/19 02:23:24;;;;;;;58.25;35.60;;;;;;;;;;5080453;28;20122;-72
2022/10/19 02:25:50;;;;;;;37.30;22.52;;;;;;;;;;5079144;28;20509;-72
2022/10/19 02:28:15;;;;;;;37.65;22.42;;;;;;;;;;5070777;28;20055;-72
2022/10/19 02:30:41;;;;;;;35.10;22.33;;;;;;;;;;5080339;28;20054;-73
2022/10/19 02:33:07;;;;;;;46.83;24.48;;;;;;;;;;5080386;28;20076;-73
2022/10/19 02:35:32;;;;;;;25.70;18.08;;;;;;;;;;5076146;28;20027;-75
2022/10/19 02:37:59;;;;;;;27.30;18.52;;;;;;;;;;5073882;28;20050;-73
2022/10/19 02:40:25;;;;;;;23.42;17.02;;;;;;;;;;5079314;28;20081;-73
2022/10/19 02:42:53;;;;;;;20.08;15.27;;;;;;;;;;5079916;28;20031;-74
2022/10/19 02:45:24;;;;;;;24.50;16.98;;;;;;;;;;5079147;28;20028;-75
2022/10/19 02:47:58;;;;;;;31.58;20.70;;;;;;;;;;5079822;28;20124;-72
2022/10/19 02:50:24;;;;;;;56.40;31.40;;;;;;;;;;5080481;28;20027;-71
2022/10/19 02:52:49;;;;;;;54.58;30.52;;;;;;;;;;5072393;28;20038;-73
2022/10/19 02:55:15;;;;;;;47.63;26.88;;;;;;;;;;5070590;28;20032;-72
2022/10/19 02:57:40;;;;;;;48.90;24.92;;;;;;;;;;5080120;28;20032;-73
2022/10/19 03:00:06;;;;;;;130.90;49.38;;;;;;;;;;5078944;28;20032;-73
2022/10/19 03:02:31;;;;;;;95.70;39.13;;;;;;;;;;5079639;28;20042;-72
2022/10/19 03:04:57;;;;;;;54.78;28.10;;;;;;;;;;5076775;28;20050;-73
2022/10/19 03:07:22;;;;;;;124.10;57.50;;;;;;;;;;5079336;28;20335;-72
2022/10/19 03:09:48;;;;;;;145.07;69.25;;;;;;;;;;5075486;28;20028;-75
2022/10/19 03:12:14;;;;;;;176.90;79.95;;;;;;;;;;5073334;28;20028;-72
2022/10/19 03:14:39;;;;;;;177.23;82.20;;;;;;;;;;5074005;28;20040;-76
2022/10/19 03:17:04;;;;;;;127.15;62.72;;;;;;;;;;5077451;28;20439;-73
2022/10/19 03:19:30;;;;;;;114.40;59.10;;;;;;;;;;5083472;28;20043;-73
2022/10/19 03:21:55;;;;;;;148.63;69.85;;;;;;;;;;5082475;28;20035;-72
2022/10/19 03:24:21;;;;;;;98.50;46.80;;;;;;;;;;5082060;28;20065;-71
2022/10/19 03:26:46;;;;;;;60.58;32.70;;;;;;;;;;5082796;28;20454;-73
2022/10/19 03:29:11;;;;;;;46.50;27.00;;;;;;;;;;5083120;28;20065;-72
2022/10/19 03:31:37;;;;;;;62.45;34.55;;;;;;;;;;5083022;28;20111;-74
2022/10/19 03:34:02;;;;;;;39.42;26.77;;;;;;;;;;5083523;28;20028;-75
2022/10/19 03:36:29;;;;;;;48.47;31.88;;;;;;;;;;5084977;28;20169;-74
2022/10/19 03:38:56;;;;;;;115.43;64.40;;;;;;;;;;5084629;28;20628;-74
2022/10/19 03:41:22;;;;;;;133.13;75.30;;;;;;;;;;5073997;28;20487;-73
2022/10/19 03:43:48;;;;;;;78.40;48.78;;;;;;;;;;5077284;28;20065;-77
2022/10/19 03:46:13;;;;;;;48.50;33.75;;;;;;;;;;5084582;28;20137;-75
2022/10/19 03:48:39;;;;;;;28.58;23.77;;;;;;;;;;5084033;28;20486;-75
2022/10/19 03:51:05;;;;;;;25.60;19.42;;;;;;;;;;5083068;28;20028;-72
2022/10/19 03:53:31;;;;;;;28.10;23.45;;;;;;;;;;5083621;28;20024;-74
2022/10/19 03:56:00;;;;;;;29.02;23.27;;;;;;;;;;5083977;28;20036;-74
2022/10/19 03:58:26;;;;;;;30.08;25.65;;;;;;;;;;5083725;28;20081;-73
2022/10/19 04:00:51;;;;;;;31.33;26.33;;;;;;;;;;5075783;28;20386;-71
2022/10/19 04:03:16;;;;;;;34.63;29.98;;;;;;;;;;5074432;28;20055;-73
2022/10/19 04:05:42;;;;;;;39.95;33.50;;;;;;;;;;5068199;28;20050;-76
2022/10/19 04:08:07;;;;;;;57.42;45.03;;;;;;;;;;5070119;28;20062;-73
2022/10/19 04:10:33;;;;;;;64.10;48.00;;;;;;;;;;5068434;28;20432;-73
2022/10/19 04:12:58;;;;;;;58.22;45.38;;;;;;;;;;5067738;28;20032;-75
2022/10/19 04:15:23;;;;;;;76.45;58.22;;;;;;;;;;5068625;28;20028;-74
2022/10/19 04:17:49;;;;;;;113.40;87.80;;;;;;;;;;5069599;28;20111;-71
2022/10/19 04:20:14;;;;;;;93.97;73.93;;;;;;;;;;5082965;28;20023;-72
2022/10/19 04:22:39;;;;;;;70.57;56.97;;;;;;;;;;5082934;28;20023;-71
2022/10/19 04:25:05;;;;;;;53.78;46.25;;;;;;;;;;5081482;28;20032;-72
2022/10/19 04:27:30;;;;;;;67.90;53.75;;;;;;;;;;5079411;28;20034;-71
2022/10/19 04:29:56;;;;;;;109.53;82.78;;;;;;;;;;5073448;28;20058;-75
2022/10/19 04:32:21;;;;;;;106.53;79.43;;;;;;;;;;5082531;28;20024;-74
2022/10/19 04:34:46;;;;;;;53.45;42.83;;;;;;;;;;5081939;28;20481;-74
2022/10/19 04:37:12;;;;;;;113.60;81.45;;;;;;;;;;5082610;28;20020;-73
2022/10/19 04:39:39;;;;;;;331.60;229.35;;;;;;;;;;5083845;28;20063;-74
2022/10/19 04:42:05;;;;;;;202.90;143.40;;;;;;;;;;5073309;28;20012;-73
2022/10/19 04:44:30;;;;;;;202.68;135.80;;;;;;;;;;5072174;28;20466;-73
2022/10/19 04:46:55;;;;;;;117.65;92.30;;;;;;;;;;5081714;28;20020;-73
2022/10/19 04:49:21;;;;;;;130.95;102.47;;;;;;;;;;5083010;28;20130;-76
2022/10/19 04:51:46;;;;;;;271.95;231.20;;;;;;;;;;5083106;28;20043;-73
2022/10/19 04:54:11;;;;;;;147.90;117.53;;;;;;;;;;5082492;28;20024;-72
2022/10/19 04:56:38;;;;;;;217.75;166.45;;;;;;;;;;5082081;28;20372;-75
2022/10/19 04:59:03;;;;;;;95.00;74.35;;;;;;;;;;5082992;28;20031;-76
2022/10/19 05:01:29;;;;;;;83.80;62.80;;;;;;;;;;5074875;28;20024;-78
2022/10/19 05:03:56;;;;;;;95.03;68.80;;;;;;;;;;5072026;28;20377;-77
2022/10/19 05:06:22;;;;;;;86.38;64.57;;;;;;;;;;5068627;28;20016;-77
2022/10/19 05:08:49;;;;;;;99.70;74.85;;;;;;;;;;5068468;28;20031;-74
2022/10/19 05:11:14;;;;;;;107.88;81.22;;;;;;;;;;5068088;28;20028;-77
2022/10/19 05:13:40;;;;;;;92.18;66.30;;;;;;;;;;5068520;28;20024;-74
2022/10/19 05:16:06;;;;;;;104.32;77.97;;;;;;;;;;5069335;28;20038;-75
2022/10/19 05:18:31;;;;;;;89.38;67.25;;;;;;;;;;5069335;28;20686;-76
2022/10/19 05:21:01;;;;;;;101.05;82.15;;;;;;;;;;5068370;28;20077;-74
2022/10/19 05:23:26;;;;;;;73.07;55.15;;;;;;;;;;5070687;28;20085;-74
2022/10/19 05:25:59;;;;;;;101.22;74.85;;;;;;;;;;5072583;28;20040;-73
2022/10/19 05:28:24;;;;;;;130.45;102.68;;;;;;;;;;5080768;28;20024;-76
2022/10/19 05:30:50;;;;;;;123.05;93.72;;;;;;;;;;5081587;28;20020;-73
2022/10/19 05:33:15;;;;;;;125.70;109.43;;;;;;;;;;5082091;28;20024;-73
2022/10/19 05:35:40;;;;;;;110.60;89.20;;;;;;;;;;5081662;28;20121;-74
2022/10/19 05:38:06;;;;;;;100.65;77.60;;;;;;;;;;5081286;28;20020;-76
2022/10/19 05:40:31;;;;;;;72.75;58.38;;;;;;;;;;5080344;28;20020;-74
2022/10/19 05:42:56;;;;;;;67.40;57.83;;;;;;;;;;5080954;28;20602;-75
2022/10/19 05:45:22;;;;;;;67.05;53.72;;;;;;;;;;5071607;28;20036;-76
2022/10/19 05:47:47;;;;;;;82.60;64.97;;;;;;;;;;5079612;28;20047;-77
2022/10/19 05:50:12;;;;;;;80.85;64.13;;;;;;;;;;5067308;28;20395;-75
2022/10/19 05:52:38;;;;;;;63.95;53.25;;;;;;;;;;5082064;28;20087;-74
2022/10/19 05:55:03;;;;;;;62.70;50.05;;;;;;;;;;5082310;28;20035;-75
2022/10/19 05:57:30;;;;;;;61.92;50.20;;;;;;;;;;5082055;28;20493;-74
2022/10/19 05:59:57;;;;;;;52.92;44.20;;;;;;;;;;5079684;28;20414;-73
2022/10/19 06:02:22;;;;;;;46.72;40.22;;;;;;;;;;5080177;28;20028;-74
2022/10/19 06:04:48;;;;;;;47.63;42.22;;;;;;;;;;5079737;28;20043;-78
2022/10/19 06:07:13;;;;;;;47.55;40.65;;;;;;;;;;5081177;28;20802;-75
2022/10/19 06:09:38;;;;;;;51.38;44.08;;;;;;;;;;5080789;28;20354;-73
2022/10/19 06:12:04;;;;;;;53.03;41.67;;;;;;;;;;5079944;28;20020;-73
2022/10/19 06:14:29;;;;;;;47.67;40.28;;;;;;;;;;5080870;28;20020;-74
2022/10/19 06:16:54;;;;;;;45.53;36.70;;;;;;;;;;5080902;28;20116;-74
2022/10/19 06:19:20;;;;;;;45.72;37.70;;;;;;;;;;5078347;28;20157;-75
2022/10/19 06:21:45;;;;;;;66.00;55.90;;;;;;;;;;5068940;28;20745;-73
2022/10/19 06:24:11;;;;;;;49.95;42.40;;;;;;;;;;5073494;28;20332;-73
2022/10/19 06:26:37;;;;;;;44.53;38.45;;;;;;;;;;5076500;28;20028;-74
2022/10/19 06:29:02;;;;;;;80.05;69.43;;;;;;;;;;5080921;28;20024;-75
2022/10/19 06:31:28;;;;;;;78.50;65.20;;;;;;;;;;5081906;28;20024;-74
2022/10/19 06:33:53;;;;;;;117.65;99.50;;;;;;;;;;5080545;28;20021;-73
2022/10/19 06:36:20;;;;;;;93.15;75.93;;;;;;;;;;5080491;28;20055;-73
2022/10/19 06:38:46;;;;;;;41.30;34.08;;;;;;;;;;5081240;28;20020;-73
2022/10/19 06:41:11;;;;;;;409.77;307.65;;;;;;;;;;5081644;28;20027;-73
2022/10/19 06:43:36;;;;;;;204.07;153.63;;;;;;;;;;5080881;28;20032;-72
2022/10/19 06:46:03;;;;;;;189.15;139.10;;;;;;;;;;5081401;28;20039;-72
2022/10/19 06:48:28;;;;;;;134.68;107.55;;;;;;;;;;5080834;28;20052;-73
2022/10/19 06:51:01;;;;;;;85.30;66.95;;;;;;;;;;5083004;28;20312;-75
2022/10/19 06:53:27;;;;;;;93.05;73.57;;;;;;;;;;5084745;28;20035;-77
2022/10/19 06:55:55;;;;;;;135.93;107.32;;;;;;;;;;5084124;28;20115;-76
2022/10/19 06:58:21;;;;;;;96.03;69.47;;;;;;;;;;5083678;28;20044;-74
2022/10/19 07:00:52;;;;;;;110.05;89.32;;;;;;;;;;5085191;28;20072;-72
2022/10/19 07:03:18;;;;;;;82.25;65.70;;;;;;;;;;5084054;28;20016;-77
2022/10/19 07:05:51;;;;;;;55.47;43.25;;;;;;;;;;5084111;28;20096;-75
2022/10/19 07:08:16;;;;;;;101.32;77.30;;;;;;;;;;5083927;28;20039;-72
2022/10/19 07:10:41;;;;;;;90.90;68.10;;;;;;;;;;5084932;28;20028;-73
2022/10/19 07:13:07;;;;;;;118.68;81.60;;;;;;;;;;5084548;28;20020;-72
2022/10/19 07:15:32;;;;;;;93.75;63.85;;;;;;;;;;5083799;28;20032;-74
2022/10/19 07:17:57;;;;;;;44.92;33.80;;;;;;;;;;5077881;28;20569;-72
2022/10/19 07:20:23;;;;;;;50.53;34.92;;;;;;;;;;5078424;28;20031;-76
2022/10/19 07:22:48;;;;;;;30.45;23.98;;;;;;;;;;5083271;28;20038;-74
2022/10/19 07:25:13;;;;;;;15.77;13.90;;;;;;;;;;5083483;28;20437;-76
2022/10/19 07:27:39;;;;;;;61.78;43.53;;;;;;;;;;5082821;28;20047;-75
2022/10/19 07:30:04;;;;;;;123.90;84.80;;;;;;;;;;5083102;28;20103;-73
2022/10/19 07:32:30;;;;;;;38.60;31.52;;;;;;;;;;5081796;28;20042;-71
2022/10/19 07:34:55;;;;;;;29.98;23.17;;;;;;;;;;5081709;28;20479;-71
2022/10/19 07:37:20;;;;;;;36.40;26.00;;;;;;;;;;5079987;28;20339;-72
2022/10/19 07:39:46;;;;;;;71.82;53.05;;;;;;;;;;5074296;28;20107;-72
2022/10/19 07:42:11;;;;;;;145.32;111.78;;;;;;;;;;5082285;28;20027;-71
2022/10/19 07:44:36;;;;;;;86.47;67.07;;;;;;;;;;5082792;28;20454;-71
2022/10/19 07:47:03;;;;;;;35.53;25.55;;;;;;;;;;5082453;28;20316;-72
2022/10/19 07:49:28;;;;;;;20.75;14.45;;;;;;;;;;5082085;28;20044;-73
2022/10/19 07:51:54;;;;;;;15.85;12.57;;;;;;;;;;5083020;28;20082;-72
2022/10/19 07:54:20;;;;;;;20.77;13.32;;;;;;;;;;5083004;28;20038;-74
2022/10/19 07:56:45;;;;;;;37.38;31.08;;;;;;;;;;5081139;28;20454;-72
2022/10/19 07:59:13;;;;;;;13.85;9.55;;;;;;;;;;5081439;28;20030;-75
2022/10/19 08:01:43;;;;;;;23.05;18.30;;;;;;;;;;5081773;28;20016;-72
2022/10/19 08:04:08;;;;;;;12.10;7.60;;;;;;;;;;5081127;28;20110;-72
2022/10/19 08:06:35;;;;;;;12.32;10.65;;;;;;;;;;5082579;28;20165;-76
2022/10/19 08:09:00;;;;;;;13.75;8.88;;;;;;;;;;5081792;28;20032;-71
2022/10/19 08:11:33;;;;;;;20.00;16.45;;;;;;;;;;5080600;28;20031;-72
2022/10/19 08:13:58;;;;;;;12.45;9.48;;;;;;;;;;5081931;28;20012;-72
2022/10/19 08:16:35;;;;;;;13.70;8.25;;;;;;;;;;5081399;28;20647;-73
2022/10/19 08:19:02;;;;;;;15.23;12.35;;;;;;;;;;5081352;28;20029;-72
2022/10/19 08:21:28;;;;;;;12.35;8.23;;;;;;;;;;5081300;28;20032;-72
2022/10/19 08:23:53;;;;;;;8.98;8.07;;;;;;;;;;5082794;28;20016;-72
2022/10/19 08:26:19;;;;;;;10.07;8.38;;;;;;;;;;5080989;28;20459;-72
2022/10/19 08:28:44;;;;;;;9.70;7.70;;;;;;;;;;5082113;28;20543;-71
2022/10/19 08:31:17;;;;;;;169.00;96.60;;;;;;;;;;5082402;28;20024;-74
2022/10/19 08:33:43;;;;;;;23.77;17.13;;;;;;;;;;5080635;28;20027;-73
2022/10/19 08:36:09;;;;;;;12.48;9.27;;;;;;;;;;5081986;28;20028;-73
2022/10/19 08:38:35;;;;;;;10.60;9.50;;;;;;;;;;5081326;28;20025;-72
2022/10/19 08:41:18;;;;;;;13.00;11.00;;;;;;;;;;5080836;28;20390;-71
2022/10/19 08:43:57;;;;;;;16.75;14.93;;;;;;;;;;5081503;28;20343;-74
2022/10/19 08:46:32;;;;;;;74.72;51.17;;;;;;;;;;5081936;28;20028;-73
2022/10/19 08:48:59;;;;;;;14.63;11.52;;;;;;;;;;5082197;28;20927;-72
2022/10/19 08:51:27;;;;;;;7.97;6.88;;;;;;;;;;5081624;28;20332;-72
2022/10/19 08:53:52;;;;;;;13.68;11.48;;;;;;;;;;5080365;28;20435;-73
2022/10/19 08:56:20;;;;;;;10.85;7.90;;;;;;;;;;5082239;28;20039;-73
2022/10/19 08:58:59;;;;;;;20.70;18.20;;;;;;;;;;5081800;28;20027;-72
2022/10/19 09:01:30;;;;;;;10.40;8.75;;;;;;;;;;5080337;28;20032;-72
2022/10/19 09:04:05;;;;;;;20.70;13.30;;;;;;;;;;5081216;28;21069;-72
2022/10/19 09:06:43;;;;;;;8.73;7.72;;;;;;;;;;5081098;28;20024;-72
2022/10/19 09:09:11;;;;;;;13.60;11.40;;;;;;;;;;5081870;28;20063;-71
2022/10/19 09:11:39;;;;;;;11.65;8.88;;;;;;;;;;5080931;28;20097;-73
2022/10/19 09:14:15;;;;;;;8.00;7.18;;;;;;;;;;5081181;28;20106;-73
2022/10/19 09:16:41;;;;;;;16.63;12.88;;;;;;;;;;5080620;28;20047;-71
2022/10/19 09:19:30;;;;;;;32.15;25.92;;;;;;;;;;5077910;28;20034;-75
2022/10/19 09:21:57;;;;;;;15.43;12.65;;;;;;;;;;5080509;28;20032;-71
2022/10/19 09:24:28;;;;;;;23.63;19.08;;;;;;;;;;5081036;28;20035;-75
2022/10/19 09:26:55;;;;;;;11.85;9.45;;;;;;;;;;5080640;28;20068;-77
2022/10/19 09:29:25;;;;;;;21.90;16.98;;;;;;;;;;5079606;28;20104;-72
2022/10/19 09:31:53;;;;;;;11.45;8.75;;;;;;;;;;5079816;28;20028;-72
2022/10/19 09:34:26;;;;;;;15.13;11.52;;;;;;;;;;5079609;28;20082;-72
2022/10/19 09:36:53;;;;;;;14.80;10.50;;;;;;;;;;5080488;28;20028;-72
2022/10/19 09:39:18;;;;;;;10.95;6.57;;;;;;;;;;5081113;28;20027;-72
2022/10/19 09:41:45;;;;;;;10.90;8.50;;;;;;;;;;5080150;28;20027;-72
2022/10/19 09:44:11;;;;;;;10.48;7.65;;;;;;;;;;5080174;28;20092;-73
2022/10/19 09:46:51;;;;;;;17.20;10.27;;;;;;;;;;5081225;28;20435;-75
2022/10/19 09:49:16;;;;;;;;;;;;;;;;;;5080413;28;20506;-71
2022/10/19 09:51:51;;;;;;;13.63;8.60;;;;;;;;;;5081210;28;20006;-71
2022/10/19 09:54:24;;;;;;;8.43;6.60;;;;;;;;;;5080469;28;21208;-72
2022/10/19 09:56:54;;;;;;;13.23;9.90;;;;;;;;;;5080183;28;20046;-72
2022/10/19 09:59:20;;;;;;;15.57;9.73;;;;;;;;;;5080483;28;20031;-73
2022/10/19 10:01:57;;;;;;;16.98;10.35;;;;;;;;;;5080417;28;20030;-74
2022/10/19 10:04:22;;;;;;;10.90;8.45;;;;;;;;;;5079652;28;20060;-72
2022/10/19 10:06:48;;;;;;;18.80;12.93;;;;;;;;;;5080102;28;20324;-73
2022/10/19 10:09:18;;;;;;;9.48;7.47;;;;;;;;;;5079811;28;20066;-72
2022/10/19 10:11:46;;;;;;;12.70;9.35;;;;;;;;;;5079329;28;20062;-73
2022/10/19 10:14:23;;;;;;;7.70;6.55;;;;;;;;;;5080550;28;20458;-72
2022/10/19 10:16:53;;;;;;;15.85;10.77;;;;;;;;;;5078499;28;20128;-72
2022/10/19 10:19:18;;;;;;;13.63;9.35;;;;;;;;;;5080195;28;20462;-73
2022/10/19 10:21:51;;;;;;;8.55;7.45;;;;;;;;;;5080486;28;20024;-73
2022/10/19 10:24:18;;;;;;;11.07;9.25;;;;;;;;;;5079164;28;20044;-71
2022/10/19 10:26:48;;;;;;;9.98;7.85;;;;;;;;;;5082249;28;20035;-72
2022/10/19 10:29:23;;;;;;;9.38;7.57;;;;;;;;;;5084862;28;20024;-71
2022/10/19 10:31:51;;;;;;;11.15;7.88;;;;;;;;;;5083344;28;20431;-72
2022/10/19 10:34:21;;;;;;;13.02;7.10;;;;;;;;;;5084704;28;20088;-73
2022/10/19 10:36:50;;;;;;;10.23;7.65;;;;;;;;;;5084425;28;20032;-71
2022/10/19 10:39:16;;;;;;;12.70;8.45;;;;;;;;;;5083041;28;20379;-73
2022/10/19 10:41:42;;;;;;;12.32;9.98;;;;;;;;;;5083908;28;20024;-73
2022/10/19 10:44:16;;;;;;;13.15;10.50;;;;;;;;;;5084466;28;20092;-76
2022/10/19 10:46:46;;;;;;;11.07;9.98;;;;;;;;;;5084215;28;20019;-73
2022/10/19 10:49:25;;;;;;;11.70;10.05;;;;;;;;;;5083671;28;20058;-72
2022/10/19 10:51:53;;;;;;;14.02;9.82;;;;;;;;;;5083352;28;20028;-75
2022/10/19 10:54:18;;;;;;;10.57;9.50;;;;;;;;;;5082469;28;20032;-73
2022/10/19 10:56:53;;;;;;;12.70;9.38;;;;;;;;;;5082434;28;20047;-72
2022/10/19 10:59:25;;;;;;;15.40;10.23;;;;;;;;;;5082534;28;20354;-74
2022/10/19 11:02:11;;;;;;;10.95;9.75;;;;;;;;;;5084339;28;20028;-72
2022/10/19 11:04:39;;;;;;;11.50;9.50;;;;;;;;;;5081533;28;20375;-73
2022/10/19 11:07:14;;;;;;;13.73;9.93;;;;;;;;;;5081622;28;20028;-72
2022/10/19 11:09:42;;;;;;;13.18;8.50;;;;;;;;;;5084317;28;20030;-73
2022/10/19 11:12:10;;;;;;;10.82;9.32;;;;;;;;;;5081810;28;20034;-72
2022/10/19 11:14:37;;;;;;;11.00;8.38;;;;;;;;;;5082900;28;20020;-74
2022/10/19 11:17:11;;;;;;;15.40;11.65;;;;;;;;;;5082984;28;20024;-72
2022/10/19 11:19:39;;;;;;;10.43;9.43;;;;;;;;;;5084003;28;20055;-72
2022/10/19 11:22:04;;;;;;;8.82;8.02;;;;;;;;;;5082975;28;20023;-73
2022/10/19 11:24:32;;;;;;;8.30;7.45;;;;;;;;;;5082766;28;20402;-72
2022/10/19 11:27:07;;;;;;;12.77;10.07;;;;;;;;;;5083321;28;20055;-73
2022/10/19 11:29:44;;;;;;;10.52;8.55;;;;;;;;;;5083964;28;20446;-72
2022/10/19 11:32:17;;;;;;;9.18;7.80;;;;;;;;;;5083652;28;20638;-75
2022/10/19 11:34:55;;;;;;;12.95;10.52;;;;;;;;;;5083336;28;20034;-73
2022/10/19 11:37:23;;;;;;;13.70;10.45;;;;;;;;;;5082222;28;20016;-73
2022/10/19 11:40:04;;;;;;;10.30;6.97;;;;;;;;;;5082752;28;20070;-73
2022/10/19 11:42:48;;;;;;;11.45;9.27;;;;;;;;;;5083459;28;20127;-72
2022/10/19 11:45:20;;;;;;;10.98;8.75;;;;;;;;;;5082340;28;20036;-74
2022/10/19 11:47:58;;;;;;;16.83;12.45;;;;;;;;;;5080734;28;20051;-73
2022/10/19 11:50:32;;;;;;;8.53;7.63;;;;;;;;;;5080621;28;20645;-72
2022/10/19 11:53:30;;;;;;;10.52;7.85;;;;;;;;;;5081017;28;20730;-72
2022/10/19 11:55:59;;;;;;;10.63;9.50;;;;;;;;;;5052504;28;20481;-74
2022/10/19 11:58:43;;;;;;;11.77;9.13;;;;;;;;;;5069352;28;20134;-76
2022/10/19 12:01:11;;;;;;;11.50;8.00;;;;;;;;;;5079440;28;20738;-74
2022/10/19 12:03:56;;;;;;;10.27;9.25;;;;;;;;;;5083351;28;20043;-75
2022/10/19 12:06:21;;;;;;;30.15;27.00;;;;;;;;;;5082354;28;20032;-72
2022/10/19 12:08:55;;;;;;;11.85;10.02;;;;;;;;;;5083190;28;20323;-73
2022/10/19 12:11:26;;;;;;;13.00;10.75;;;;;;;;;;5082289;28;20026;-73
2022/10/19 12:13:54;;;;;;;15.43;11.07;;;;;;;;;;5082041;28;20047;-72
2022/10/19 12:16:21;;;;;;;22.48;17.98;;;;;;;;;;5080392;28;20024;-72
2022/10/19 12:18:48;;;;;;;10.82;8.63;;;;;;;;;;5080762;28;20028;-71
2022/10/19 12:21:19;;;;;;;11.10;9.63;;;;;;;;;;5082440;28;20047;-72
2022/10/19 12:23:45;;;;;;;12.90;9.95;;;;;;;;;;5082645;28;20035;-73
2022/10/19 12:26:14;;;;;;;11.32;10.07;;;;;;;;;;5081831;28;20032;-73
2022/10/19 12:28:42;;;;;;;12.80;9.40;;;;;;;;;;5080618;28;20031;-72
2022/10/19 12:31:08;;;;;;;9.77;8.70;;;;;;;;;;5074180;28;20054;-72
2022/10/19 12:34:00;;;;;;;10.50;8.68;;;;;;;;;;5069192;28;20047;-72
2022/10/19 12:36:25;;;;;;;12.48;10.55;;;;;;;;;;5067560;28;20340;-72
2022/10/19 12:39:01;;;;;;;13.00;9.90;;;;;;;;;;5067939;28;20043;-72
2022/10/19 12:41:34;;;;;;;9.75;8.45;;;;;;;;;;5068461;28;20107;-73
2022/10/19 12:43:59;;;;;;;12.52;8.95;;;;;;;;;;5068885;28;20027;-72
2022/10/19 12:46:40;;;;;;;10.75;9.18;;;;;;;;;;5069931;28;20024;-73
2022/10/19 12:49:24;;;;;;;9.35;8.43;;;;;;;;;;5068986;28;20484;-72
2022/10/19 12:51:50;;;;;;;19.27;14.32;;;;;;;;;;5068450;28;20089;-74
2022/10/19 12:54:20;;;;;;;23.45;15.55;;;;;;;;;;5069420;28;20020;-74
2022/10/19 12:56:50;;;;;;;16.15;11.82;;;;;;;;;;5066746;28;20163;-75
2022/10/19 12:59:26;;;;;;;24.77;17.15;;;;;;;;;;5068777;28;20047;-73
2022/10/19 13:01:52;;;;;;;15.90;13.10;;;;;;;;;;5068905;28;20016;-72
2022/10/19 13:04:25;;;;;;;12.65;9.82;;;;;;;;;;5068133;28;20076;-72
2022/10/19 13:06:57;;;;;;;11.65;9.80;;;;;;;;;;5067389;28;20056;-72
2022/10/19 13:09:25;;;;;;;37.50;26.52;;;;;;;;;;5068348;28;20027;-75
2022/10/19 13:12:09;;;;;;;20.35;9.73;;;;;;;;;;5068333;28;20056;-72
2022/10/19 13:14:46;;;;;;;41.78;29.27;;;;;;;;;;5068706;28;20056;-73
2022/10/19 13:17:30;;;;;;;16.55;13.57;;;;;;;;;;5068456;28;20028;-72
2022/10/19 13:20:17;;;;;;;15.50;12.98;;;;;;;;;;5066568;28;20036;-71
2022/10/19 13:22:51;;;;;;;26.80;19.42;;;;;;;;;;5066417;28;20060;-72
2022/10/19 13:25:17;;;;;;;15.07;10.98;;;;;;;;;;5067315;28;20047;-74
2022/10/19 13:27:43;;;;;;;11.60;10.40;;;;;;;;;;5075005;28;20016;-75
2022/10/19 13:30:28;;;;;;;19.10;15.05;;;;;;;;;;5080839;28;20187;-75
2022/10/19 13:32:53;;;;;;;14.60;9.63;;;;;;;;;;5080710;28;20463;-73
2022/10/19 13:35:27;;;;;;;12.00;10.70;;;;;;;;;;5074268;28;20074;-78
2022/10/19 13:38:08;;;;;;;17.63;13.73;;;;;;;;;;5066985;28;20060;-74
2022/10/19 13:40:37;;;;;;;15.43;12.55;;;;;;;;;;5065665;28;20038;-76
2022/10/19 13:43:03;;;;;;;16.45;13.48;;;;;;;;;;5067728;28;20032;-73
2022/10/19 13:45:28;;;;;;;24.40;18.67;;;;;;;;;;5067059;28;20118;-75
2022/10/19 13:47:56;;;;;;;12.85;11.15;;;;;;;;;;5066706;28;20044;-74
2022/10/19 13:50:29;;;;;;;12.15;10.55;;;;;;;;;;5067018;28;20303;-74
2022/10/19 13:53:13;;;;;;;15.27;11.95;;;;;;;;;;5066843;28;20063;-74
2022/10/19 13:55:39;;;;;;;10.55;9.50;;;;;;;;;;5067200;28;20150;-73
2022/10/19 13:58:04;;;;;;;11.65;9.43;;;;;;;;;;5067118;28;20099;-71
2022/10/19 14:00:48;;;;;;;13.65;9.90;;;;;;;;;;5065674;28;20066;-76
2022/10/19 14:03:13;;;;;;;10.93;9.70;;;;;;;;;;5066928;28;20671;-72
2022/10/19 14:05:41;;;;;;;15.80;10.63;;;;;;;;;;5066101;28;20046;-73
2022/10/19 14:08:25;;;;;;;11.27;9.98;;;;;;;;;;5065168;28;20333;-73
2022/10/19 14:10:57;;;;;;;14.85;10.73;;;;;;;;;;5066708;28;20027;-75
2022/10/19 14:13:22;;;;;;;16.08;12.27;;;;;;;;;;5065043;28;20443;-74
2022/10/19 14:15:52;;;;;;;12.48;11.23;;;;;;;;;;5066686;28;20039;-73
2022/10/19 14:18:23;;;;;;;13.18;11.30;;;;;;;;;;5065200;28;20024;-74
2022/10/19 14:21:15;;;;;;;15.85;9.85;;;;;;;;;;5065735;28;20435;-75
2022/10/19 14:23:40;;;;;;;12.85;10.43;;;;;;;;;;5060505;28;20127;-73
2022/10/19 14:26:10;;;;;;;14.77;11.00;;;;;;;;;;5067311;28;20135;-75
2022/10/19 14:28:36;;;;;;;21.05;15.65;;;;;;;;;;5067336;28;20024;-73